sensor_id;sensor_type;location;lat;lon;timestamp;P1;durP1;ratioP1;P2;durP2;ratioP2
22230;SDS011;11284;48.086;-1.652;2023-03-08T00:01:30;6.72;;;4.63;;
22230;SDS011;11284;48.086;-1.652;2023-03-08T00:03:56;8.00;;;4.60;;
22230;SDS011;11284;48.086;-1.652;2023-03-08T00:06:23;7.88;;;4.95;;
22230;SDS011;11284;48.086;-1.652;2023-03-08T00:08:49;7.65;;;4.35;;
22230;SDS011;11284;48.086;-1.652;2023-03-08T00:11:18;7.60;;;4.97;;
22230;SDS011;11284;48.086;-1.652;2023-03-08T00:13:44;8.05;;;4.82;;
22230;SDS011;11284;48.086;-1.652;2023-03-08T00:16:11;7.07;;;4.90;;
22230;SDS011;11284;48.086;-1.652;2023-03-08T00:18:38;8.95;;;4.88;;
22230;SDS011;11284;48.086;-1.652;2023-03-08T00:21:05;8.30;;;5.07;;
22230;SDS011;11284;48.086;-1.652;2023-03-08T00:23:32;7.68;;;5.05;;
22230;SDS011;11284;48.086;-1.652;2023-03-08T00:25:58;8.13;;;4.82;;
22230;SDS011;11284;48.086;-1.652;2023-03-08T00:28:24;8.02;;;4.65;;
22230;SDS011;11284;48.086;-1.652;2023-03-08T00:30:54;7.50;;;4.63;;
22230;SDS011;11284;48.086;-1.652;2023-03-08T00:33:20;8.98;;;4.85;;
22230;SDS011;11284;48.086;-1.652;2023-03-08T00:35:56;7.57;;;5.15;;
22230;SDS011;11284;48.086;-1.652;2023-03-08T00:38:22;7.68;;;4.80;;
22230;SDS011;11284;48.086;-1.652;2023-03-08T00:40:48;6.68;;;4.25;;
22230;SDS011;11284;48.086;-1.652;2023-03-08T00:43:14;6.57;;;4.07;;
22230;SDS011;11284;48.086;-1.652;2023-03-08T00:45:40;9.02;;;4.43;;
22230;SDS011;11284;48.086;-1.652;2023-03-08T00:48:06;7.53;;;4.70;;
22230;SDS011;11284;48.086;-1.652;2023-03-08T00:50:32;7.22;;;4.18;;
22230;SDS011;11284;48.086;-1.652;2023-03-08T00:52:58;6.50;;;4.30;;
22230;SDS011;11284;48.086;-1.652;2023-03-08T00:55:24;6.78;;;3.80;;
22230;SDS011;11284;48.086;-1.652;2023-03-08T00:57:50;5.78;;;3.35;;
22230;SDS011;11284;48.086;-1.652;2023-03-08T01:00:16;5.55;;;3.25;;
22230;SDS011;11284;48.086;-1.652;2023-03-08T01:02:43;5.18;;;3.20;;
22230;SDS011;11284;48.086;-1.652;2023-03-08T01:05:09;6.22;;;3.20;;
22230;SDS011;11284;48.086;-1.652;2023-03-08T01:07:35;4.93;;;3.00;;
22230;SDS011;11284;48.086;-1.652;2023-03-08T01:10:01;4.55;;;2.78;;
22230;SDS011;11284;48.086;-1.652;2023-03-08T01:12:30;4.57;;;2.92;;
22230;SDS011;11284;48.086;-1.652;2023-03-08T01:14:56;4.75;;;2.78;;
22230;SDS011;11284;48.086;-1.652;2023-03-08T01:17:22;5.13;;;2.60;;
22230;SDS011;11284;48.086;-1.652;2023-03-08T01:19:48;4.22;;;2.53;;
22230;SDS011;11284;48.086;-1.652;2023-03-08T01:22:14;4.88;;;2.55;;
22230;SDS011;11284;48.086;-1.652;2023-03-08T01:24:44;4.20;;;2.47;;
22230;SDS011;11284;48.086;-1.652;2023-03-08T01:27:10;4.03;;;2.15;;
22230;SDS011;11284;48.086;-1.652;2023-03-08T01:29:36;3.63;;;2.00;;
22230;SDS011;11284;48.086;-1.652;2023-03-08T01:32:02;3.25;;;1.70;;
22230;SDS011;11284;48.086;-1.652;2023-03-08T01:34:28;2.97;;;1.48;;
22230;SDS011;11284;48.086;-1.652;2023-03-08T01:36:54;3.42;;;1.70;;
22230;SDS011;11284;48.086;-1.652;2023-03-08T01:39:20;3.10;;;1.40;;
22230;SDS011;11284;48.086;-1.652;2023-03-08T01:41:46;2.80;;;1.30;;
22230;SDS011;11284;48.086;-1.652;2023-03-08T01:44:16;3.17;;;1.42;;
22230;SDS011;11284;48.086;-1.652;2023-03-08T01:46:42;3.20;;;1.35;;
22230;SDS011;11284;48.086;-1.652;2023-03-08T01:49:09;2.70;;;1.08;;
22230;SDS011;11284;48.086;-1.652;2023-03-08T01:51:42;2.60;;;1.10;;
22230;SDS011;11284;48.086;-1.652;2023-03-08T01:54:19;2.53;;;1.00;;
22230;SDS011;11284;48.086;-1.652;2023-03-08T01:56:48;2.30;;;1.00;;
22230;SDS011;11284;48.086;-1.652;2023-03-08T01:59:15;3.05;;;1.00;;
22230;SDS011;11284;48.086;-1.652;2023-03-08T02:01:41;2.28;;;0.90;;
22230;SDS011;11284;48.086;-1.652;2023-03-08T02:04:07;1.95;;;0.60;;
22230;SDS011;11284;48.086;-1.652;2023-03-08T02:06:34;1.90;;;0.60;;
22230;SDS011;11284;48.086;-1.652;2023-03-08T02:09:00;1.85;;;0.70;;
22230;SDS011;11284;48.086;-1.652;2023-03-08T02:11:29;1.80;;;0.60;;
22230;SDS011;11284;48.086;-1.652;2023-03-08T02:13:55;2.70;;;0.70;;
22230;SDS011;11284;48.086;-1.652;2023-03-08T02:16:21;2.85;;;0.70;;
22230;SDS011;11284;48.086;-1.652;2023-03-08T02:18:52;1.40;;;0.45;;
22230;SDS011;11284;48.086;-1.652;2023-03-08T02:21:18;2.05;;;0.57;;
22230;SDS011;11284;48.086;-1.652;2023-03-08T02:23:44;1.58;;;0.40;;
22230;SDS011;11284;48.086;-1.652;2023-03-08T02:26:10;1.88;;;0.50;;
22230;SDS011;11284;48.086;-1.652;2023-03-08T02:28:36;2.35;;;0.40;;
22230;SDS011;11284;48.086;-1.652;2023-03-08T02:31:02;2.17;;;0.40;;
22230;SDS011;11284;48.086;-1.652;2023-03-08T02:33:28;2.25;;;0.50;;
22230;SDS011;11284;48.086;-1.652;2023-03-08T02:35:56;1.92;;;0.38;;
22230;SDS011;11284;48.086;-1.652;2023-03-08T02:38:22;3.03;;;0.50;;
22230;SDS011;11284;48.086;-1.652;2023-03-08T02:40:48;4.82;;;0.50;;
22230;SDS011;11284;48.086;-1.652;2023-03-08T02:43:15;1.80;;;0.52;;
22230;SDS011;11284;48.086;-1.652;2023-03-08T02:45:42;1.40;;;0.40;;
22230;SDS011;11284;48.086;-1.652;2023-03-08T02:48:08;2.20;;;0.40;;
22230;SDS011;11284;48.086;-1.652;2023-03-08T02:50:34;1.73;;;0.40;;
22230;SDS011;11284;48.086;-1.652;2023-03-08T02:53:00;2.67;;;0.70;;
22230;SDS011;11284;48.086;-1.652;2023-03-08T02:55:26;3.05;;;0.55;;
22230;SDS011;11284;48.086;-1.652;2023-03-08T02:57:52;1.77;;;0.40;;
22230;SDS011;11284;48.086;-1.652;2023-03-08T03:00:18;2.08;;;0.40;;
22230;SDS011;11284;48.086;-1.652;2023-03-08T03:02:44;3.33;;;0.82;;
22230;SDS011;11284;48.086;-1.652;2023-03-08T03:05:11;2.30;;;0.50;;
22230;SDS011;11284;48.086;-1.652;2023-03-08T03:07:37;2.53;;;0.50;;
22230;SDS011;11284;48.086;-1.652;2023-03-08T03:10:04;3.35;;;0.50;;
22230;SDS011;11284;48.086;-1.652;2023-03-08T03:12:30;4.70;;;0.60;;
22230;SDS011;11284;48.086;-1.652;2023-03-08T03:14:56;4.63;;;0.80;;
22230;SDS011;11284;48.086;-1.652;2023-03-08T03:17:22;3.80;;;0.68;;
22230;SDS011;11284;48.086;-1.652;2023-03-08T03:19:48;4.10;;;0.80;;
22230;SDS011;11284;48.086;-1.652;2023-03-08T03:22:14;4.40;;;0.88;;
22230;SDS011;11284;48.086;-1.652;2023-03-08T03:24:40;5.15;;;0.95;;
22230;SDS011;11284;48.086;-1.652;2023-03-08T03:27:06;5.22;;;1.10;;
22230;SDS011;11284;48.086;-1.652;2023-03-08T03:29:32;5.82;;;0.80;;
22230;SDS011;11284;48.086;-1.652;2023-03-08T03:31:58;6.57;;;1.00;;
22230;SDS011;11284;48.086;-1.652;2023-03-08T03:34:24;6.45;;;1.02;;
22230;SDS011;11284;48.086;-1.652;2023-03-08T03:36:50;6.05;;;1.25;;
22230;SDS011;11284;48.086;-1.652;2023-03-08T03:39:16;5.97;;;1.40;;
22230;SDS011;11284;48.086;-1.652;2023-03-08T03:41:42;6.53;;;1.20;;
22230;SDS011;11284;48.086;-1.652;2023-03-08T03:44:08;8.93;;;1.50;;
22230;SDS011;11284;48.086;-1.652;2023-03-08T03:46:34;8.45;;;1.58;;
22230;SDS011;11284;48.086;-1.652;2023-03-08T03:49:00;7.85;;;1.83;;
22230;SDS011;11284;48.086;-1.652;2023-03-08T03:51:26;11.05;;;2.50;;
22230;SDS011;11284;48.086;-1.652;2023-03-08T03:53:52;12.18;;;2.22;;
22230;SDS011;11284;48.086;-1.652;2023-03-08T03:56:20;11.70;;;2.22;;
22230;SDS011;11284;48.086;-1.652;2023-03-08T03:58:46;13.57;;;2.45;;
22230;SDS011;11284;48.086;-1.652;2023-03-08T04:03:48;12.48;;;2.35;;
22230;SDS011;11284;48.086;-1.652;2023-03-08T04:06:16;10.75;;;2.42;;
22230;SDS011;11284;48.086;-1.652;2023-03-08T04:08:42;15.55;;;2.72;;
22230;SDS011;11284;48.086;-1.652;2023-03-08T04:11:08;15.13;;;2.75;;
22230;SDS011;11284;48.086;-1.652;2023-03-08T04:13:35;15.07;;;2.80;;
22230;SDS011;11284;48.086;-1.652;2023-03-08T04:16:08;20.48;;;3.28;;
22230;SDS011;11284;48.086;-1.652;2023-03-08T04:18:34;14.68;;;3.30;;
22230;SDS011;11284;48.086;-1.652;2023-03-08T04:21:00;20.60;;;3.55;;
22230;SDS011;11284;48.086;-1.652;2023-03-08T04:23:26;19.02;;;3.65;;
22230;SDS011;11284;48.086;-1.652;2023-03-08T04:25:52;21.75;;;3.75;;
22230;SDS011;11284;48.086;-1.652;2023-03-08T04:28:18;18.02;;;3.63;;
22230;SDS011;11284;48.086;-1.652;2023-03-08T04:30:44;18.25;;;3.53;;
22230;SDS011;11284;48.086;-1.652;2023-03-08T04:33:10;19.40;;;3.60;;
22230;SDS011;11284;48.086;-1.652;2023-03-08T04:35:36;17.00;;;2.83;;
22230;SDS011;11284;48.086;-1.652;2023-03-08T04:38:02;18.13;;;3.20;;
22230;SDS011;11284;48.086;-1.652;2023-03-08T04:40:28;15.02;;;3.13;;
22230;SDS011;11284;48.086;-1.652;2023-03-08T04:42:54;15.52;;;3.35;;
22230;SDS011;11284;48.086;-1.652;2023-03-08T04:45:20;20.38;;;3.47;;
22230;SDS011;11284;48.086;-1.652;2023-03-08T04:47:46;19.45;;;3.60;;
22230;SDS011;11284;48.086;-1.652;2023-03-08T04:50:12;16.48;;;3.50;;
22230;SDS011;11284;48.086;-1.652;2023-03-08T04:52:38;18.85;;;3.10;;
22230;SDS011;11284;48.086;-1.652;2023-03-08T04:55:04;24.60;;;4.32;;
22230;SDS011;11284;48.086;-1.652;2023-03-08T04:57:31;16.45;;;3.05;;
22230;SDS011;11284;48.086;-1.652;2023-03-08T04:59:59;18.63;;;3.72;;
22230;SDS011;11284;48.086;-1.652;2023-03-08T05:02:25;14.82;;;3.20;;
22230;SDS011;11284;48.086;-1.652;2023-03-08T05:04:51;15.98;;;3.00;;
22230;SDS011;11284;48.086;-1.652;2023-03-08T05:07:16;21.58;;;3.70;;
22230;SDS011;11284;48.086;-1.652;2023-03-08T05:09:42;16.52;;;3.70;;
22230;SDS011;11284;48.086;-1.652;2023-03-08T05:12:09;16.05;;;3.33;;
22230;SDS011;11284;48.086;-1.652;2023-03-08T05:14:34;15.63;;;3.10;;
22230;SDS011;11284;48.086;-1.652;2023-03-08T05:17:00;14.57;;;3.30;;
22230;SDS011;11284;48.086;-1.652;2023-03-08T05:19:26;17.98;;;3.60;;
22230;SDS011;11284;48.086;-1.652;2023-03-08T05:21:52;14.70;;;2.80;;
22230;SDS011;11284;48.086;-1.652;2023-03-08T05:24:18;19.30;;;3.47;;
22230;SDS011;11284;48.086;-1.652;2023-03-08T05:26:44;16.15;;;3.42;;
22230;SDS011;11284;48.086;-1.652;2023-03-08T05:29:10;20.90;;;4.22;;
22230;SDS011;11284;48.086;-1.652;2023-03-08T05:31:36;17.92;;;3.20;;
22230;SDS011;11284;48.086;-1.652;2023-03-08T05:34:03;17.45;;;3.72;;
22230;SDS011;11284;48.086;-1.652;2023-03-08T05:36:29;19.52;;;3.63;;
22230;SDS011;11284;48.086;-1.652;2023-03-08T05:38:55;15.27;;;2.70;;
22230;SDS011;11284;48.086;-1.652;2023-03-08T05:41:21;21.75;;;3.65;;
22230;SDS011;11284;48.086;-1.652;2023-03-08T05:43:47;18.92;;;3.45;;
22230;SDS011;11284;48.086;-1.652;2023-03-08T05:46:17;18.42;;;3.20;;
22230;SDS011;11284;48.086;-1.652;2023-03-08T05:48:43;16.38;;;3.63;;
22230;SDS011;11284;48.086;-1.652;2023-03-08T05:51:14;17.20;;;3.25;;
22230;SDS011;11284;48.086;-1.652;2023-03-08T05:53:40;19.67;;;3.67;;
22230;SDS011;11284;48.086;-1.652;2023-03-08T05:56:10;19.70;;;4.00;;
22230;SDS011;11284;48.086;-1.652;2023-03-08T05:58:37;14.43;;;3.60;;
22230;SDS011;11284;48.086;-1.652;2023-03-08T06:01:07;16.02;;;3.80;;
22230;SDS011;11284;48.086;-1.652;2023-03-08T06:03:33;21.33;;;4.05;;
22230;SDS011;11284;48.086;-1.652;2023-03-08T06:05:59;17.05;;;3.22;;
22230;SDS011;11284;48.086;-1.652;2023-03-08T06:08:25;21.85;;;4.28;;
22230;SDS011;11284;48.086;-1.652;2023-03-08T06:10:51;23.30;;;3.78;;
22230;SDS011;11284;48.086;-1.652;2023-03-08T06:13:17;16.98;;;3.72;;
22230;SDS011;11284;48.086;-1.652;2023-03-08T06:15:43;13.63;;;2.75;;
22230;SDS011;11284;48.086;-1.652;2023-03-08T06:18:09;15.77;;;3.08;;
22230;SDS011;11284;48.086;-1.652;2023-03-08T06:20:35;12.43;;;2.45;;
22230;SDS011;11284;48.086;-1.652;2023-03-08T06:23:01;18.48;;;3.15;;
22230;SDS011;11284;48.086;-1.652;2023-03-08T06:25:27;19.83;;;3.63;;
22230;SDS011;11284;48.086;-1.652;2023-03-08T06:27:53;16.98;;;2.97;;
22230;SDS011;11284;48.086;-1.652;2023-03-08T06:30:19;14.80;;;3.28;;
22230;SDS011;11284;48.086;-1.652;2023-03-08T06:32:45;11.98;;;2.53;;
22230;SDS011;11284;48.086;-1.652;2023-03-08T06:35:11;13.63;;;2.45;;
22230;SDS011;11284;48.086;-1.652;2023-03-08T06:37:37;11.60;;;2.25;;
22230;SDS011;11284;48.086;-1.652;2023-03-08T06:40:03;10.95;;;2.20;;
22230;SDS011;11284;48.086;-1.652;2023-03-08T06:42:30;14.65;;;2.75;;
22230;SDS011;11284;48.086;-1.652;2023-03-08T06:44:56;15.13;;;2.80;;
22230;SDS011;11284;48.086;-1.652;2023-03-08T06:47:22;12.20;;;2.55;;
22230;SDS011;11284;48.086;-1.652;2023-03-08T06:49:48;9.95;;;2.42;;
22230;SDS011;11284;48.086;-1.652;2023-03-08T06:52:14;12.30;;;2.22;;
22230;SDS011;11284;48.086;-1.652;2023-03-08T06:54:40;10.30;;;2.17;;
22230;SDS011;11284;48.086;-1.652;2023-03-08T06:57:06;9.85;;;2.88;;
22230;SDS011;11284;48.086;-1.652;2023-03-08T06:59:32;12.93;;;2.63;;
22230;SDS011;11284;48.086;-1.652;2023-03-08T07:01:58;13.50;;;2.35;;
22230;SDS011;11284;48.086;-1.652;2023-03-08T07:04:24;10.93;;;2.33;;
22230;SDS011;11284;48.086;-1.652;2023-03-08T07:06:50;11.07;;;2.20;;
22230;SDS011;11284;48.086;-1.652;2023-03-08T07:09:16;10.35;;;2.05;;
22230;SDS011;11284;48.086;-1.652;2023-03-08T07:11:42;10.38;;;2.15;;
22230;SDS011;11284;48.086;-1.652;2023-03-08T07:14:08;8.63;;;2.33;;
22230;SDS011;11284;48.086;-1.652;2023-03-08T07:16:34;9.70;;;1.90;;
22230;SDS011;11284;48.086;-1.652;2023-03-08T07:19:01;7.45;;;1.92;;
22230;SDS011;11284;48.086;-1.652;2023-03-08T07:21:27;11.68;;;1.70;;
22230;SDS011;11284;48.086;-1.652;2023-03-08T07:23:53;9.50;;;2.03;;
22230;SDS011;11284;48.086;-1.652;2023-03-08T07:26:19;8.27;;;1.75;;
22230;SDS011;11284;48.086;-1.652;2023-03-08T07:28:48;9.60;;;2.20;;
22230;SDS011;11284;48.086;-1.652;2023-03-08T07:31:15;11.98;;;2.10;;
22230;SDS011;11284;48.086;-1.652;2023-03-08T07:33:41;11.52;;;2.22;;
22230;SDS011;11284;48.086;-1.652;2023-03-08T07:36:07;11.65;;;2.35;;
22230;SDS011;11284;48.086;-1.652;2023-03-08T07:38:33;9.32;;;2.28;;
22230;SDS011;11284;48.086;-1.652;2023-03-08T07:40:59;8.75;;;2.03;;
22230;SDS011;11284;48.086;-1.652;2023-03-08T07:43:25;10.07;;;2.33;;
22230;SDS011;11284;48.086;-1.652;2023-03-08T07:45:51;8.35;;;1.95;;
22230;SDS011;11284;48.086;-1.652;2023-03-08T07:48:17;8.35;;;2.10;;
22230;SDS011;11284;48.086;-1.652;2023-03-08T07:50:43;7.45;;;2.00;;
22230;SDS011;11284;48.086;-1.652;2023-03-08T07:53:09;8.50;;;1.80;;
22230;SDS011;11284;48.086;-1.652;2023-03-08T07:55:35;11.32;;;2.40;;
22230;SDS011;11284;48.086;-1.652;2023-03-08T07:58:05;9.30;;;1.80;;
22230;SDS011;11284;48.086;-1.652;2023-03-08T08:00:31;9.63;;;2.08;;
22230;SDS011;11284;48.086;-1.652;2023-03-08T08:02:57;8.00;;;2.03;;
22230;SDS011;11284;48.086;-1.652;2023-03-08T08:05:23;8.77;;;2.22;;
22230;SDS011;11284;48.086;-1.652;2023-03-08T08:07:49;12.85;;;2.22;;
22230;SDS011;11284;48.086;-1.652;2023-03-08T08:10:15;10.18;;;2.10;;
22230;SDS011;11284;48.086;-1.652;2023-03-08T08:12:42;9.95;;;2.55;;
22230;SDS011;11284;48.086;-1.652;2023-03-08T08:15:08;11.32;;;2.40;;
22230;SDS011;11284;48.086;-1.652;2023-03-08T08:17:34;8.40;;;2.22;;
22230;SDS011;11284;48.086;-1.652;2023-03-08T08:20:00;8.80;;;2.50;;
22230;SDS011;11284;48.086;-1.652;2023-03-08T08:22:26;12.68;;;2.50;;
22230;SDS011;11284;48.086;-1.652;2023-03-08T08:24:52;14.65;;;3.33;;
22230;SDS011;11284;48.086;-1.652;2023-03-08T08:27:18;13.18;;;3.10;;
22230;SDS011;11284;48.086;-1.652;2023-03-08T08:29:44;16.58;;;2.72;;
22230;SDS011;11284;48.086;-1.652;2023-03-08T08:32:13;12.93;;;3.28;;
22230;SDS011;11284;48.086;-1.652;2023-03-08T08:34:39;13.38;;;2.92;;
22230;SDS011;11284;48.086;-1.652;2023-03-08T08:37:05;14.40;;;3.30;;
22230;SDS011;11284;48.086;-1.652;2023-03-08T08:39:31;17.23;;;3.60;;
22230;SDS011;11284;48.086;-1.652;2023-03-08T08:41:57;20.05;;;4.60;;
22230;SDS011;11284;48.086;-1.652;2023-03-08T08:44:23;16.20;;;3.58;;
22230;SDS011;11284;48.086;-1.652;2023-03-08T08:46:49;18.70;;;3.30;;
22230;SDS011;11284;48.086;-1.652;2023-03-08T08:49:15;19.52;;;4.20;;
22230;SDS011;11284;48.086;-1.652;2023-03-08T08:51:41;16.33;;;3.45;;
22230;SDS011;11284;48.086;-1.652;2023-03-08T08:54:07;13.80;;;3.55;;
22230;SDS011;11284;48.086;-1.652;2023-03-08T08:56:33;11.27;;;3.13;;
22230;SDS011;11284;48.086;-1.652;2023-03-08T08:58:59;14.50;;;3.67;;
22230;SDS011;11284;48.086;-1.652;2023-03-08T09:01:27;14.85;;;3.35;;
22230;SDS011;11284;48.086;-1.652;2023-03-08T09:03:54;16.88;;;3.38;;
22230;SDS011;11284;48.086;-1.652;2023-03-08T09:06:20;15.63;;;3.75;;
22230;SDS011;11284;48.086;-1.652;2023-03-08T09:08:50;18.70;;;3.53;;
22230;SDS011;11284;48.086;-1.652;2023-03-08T09:11:17;16.25;;;2.95;;
22230;SDS011;11284;48.086;-1.652;2023-03-08T09:13:43;16.60;;;3.10;;
22230;SDS011;11284;48.086;-1.652;2023-03-08T09:16:19;14.18;;;3.28;;
22230;SDS011;11284;48.086;-1.652;2023-03-08T09:18:46;12.48;;;2.80;;
22230;SDS011;11284;48.086;-1.652;2023-03-08T09:21:12;16.67;;;3.20;;
22230;SDS011;11284;48.086;-1.652;2023-03-08T09:23:38;13.80;;;3.65;;
22230;SDS011;11284;48.086;-1.652;2023-03-08T09:26:05;16.77;;;2.83;;
22230;SDS011;11284;48.086;-1.652;2023-03-08T09:28:31;20.13;;;3.25;;
22230;SDS011;11284;48.086;-1.652;2023-03-08T09:30:57;14.55;;;3.10;;
22230;SDS011;11284;48.086;-1.652;2023-03-08T09:33:23;14.95;;;3.35;;
22230;SDS011;11284;48.086;-1.652;2023-03-08T09:35:58;16.05;;;3.45;;
22230;SDS011;11284;48.086;-1.652;2023-03-08T09:38:25;16.92;;;3.25;;
22230;SDS011;11284;48.086;-1.652;2023-03-08T09:40:54;12.63;;;2.65;;
22230;SDS011;11284;48.086;-1.652;2023-03-08T09:43:35;10.55;;;2.85;;
22230;SDS011;11284;48.086;-1.652;2023-03-08T09:46:04;16.52;;;3.30;;
22230;SDS011;11284;48.086;-1.652;2023-03-08T09:48:31;13.13;;;3.10;;
22230;SDS011;11284;48.086;-1.652;2023-03-08T09:50:59;15.73;;;3.00;;
22230;SDS011;11284;48.086;-1.652;2023-03-08T09:53:27;15.15;;;3.75;;
22230;SDS011;11284;48.086;-1.652;2023-03-08T09:55:55;16.13;;;2.92;;
22230;SDS011;11284;48.086;-1.652;2023-03-08T10:00:48;18.20;;;3.30;;
22230;SDS011;11284;48.086;-1.652;2023-03-08T10:08:33;12.95;;;3.33;;
22230;SDS011;11284;48.086;-1.652;2023-03-08T10:11:04;13.40;;;2.70;;
22230;SDS011;11284;48.086;-1.652;2023-03-08T10:13:37;10.68;;;2.30;;
22230;SDS011;11284;48.086;-1.652;2023-03-08T10:21:15;9.02;;;2.50;;
22230;SDS011;11284;48.086;-1.652;2023-03-08T10:23:43;8.75;;;1.77;;
22230;SDS011;11284;48.086;-1.652;2023-03-08T10:26:12;8.15;;;1.92;;
22230;SDS011;11284;48.086;-1.652;2023-03-08T10:28:38;7.25;;;1.80;;
22230;SDS011;11284;48.086;-1.652;2023-03-08T10:31:14;8.52;;;1.75;;
22230;SDS011;11284;48.086;-1.652;2023-03-08T10:33:41;9.60;;;1.67;;
22230;SDS011;11284;48.086;-1.652;2023-03-08T10:36:08;5.90;;;1.48;;
22230;SDS011;11284;48.086;-1.652;2023-03-08T10:41:13;7.18;;;1.85;;
22230;SDS011;11284;48.086;-1.652;2023-03-08T10:43:50;8.57;;;2.20;;
22230;SDS011;11284;48.086;-1.652;2023-03-08T10:46:18;7.32;;;2.03;;
22230;SDS011;11284;48.086;-1.652;2023-03-08T10:48:44;6.47;;;2.03;;
22230;SDS011;11284;48.086;-1.652;2023-03-08T10:54:02;6.70;;;2.00;;
22230;SDS011;11284;48.086;-1.652;2023-03-08T10:56:39;5.28;;;1.45;;
22230;SDS011;11284;48.086;-1.652;2023-03-08T10:59:45;4.93;;;1.48;;
22230;SDS011;11284;48.086;-1.652;2023-03-08T11:04:29;7.88;;;1.80;;
22230;SDS011;11284;48.086;-1.652;2023-03-08T11:06:55;7.90;;;2.20;;
22230;SDS011;11284;48.086;-1.652;2023-03-08T11:11:49;8.13;;;2.38;;
22230;SDS011;11284;48.086;-1.652;2023-03-08T11:14:16;11.27;;;2.38;;
22230;SDS011;11284;48.086;-1.652;2023-03-08T11:24:12;12.77;;;2.97;;
22230;SDS011;11284;48.086;-1.652;2023-03-08T11:26:44;17.00;;;3.60;;
22230;SDS011;11284;48.086;-1.652;2023-03-08T11:39:28;16.90;;;3.83;;
22230;SDS011;11284;48.086;-1.652;2023-03-08T11:41:57;13.90;;;3.28;;
22230;SDS011;11284;48.086;-1.652;2023-03-08T11:55:09;15.25;;;3.40;;
22230;SDS011;11284;48.086;-1.652;2023-03-08T11:57:45;17.30;;;3.70;;
22230;SDS011;11284;48.086;-1.652;2023-03-08T12:00:13;14.45;;;3.10;;
22230;SDS011;11284;48.086;-1.652;2023-03-08T12:02:44;15.63;;;3.35;;
22230;SDS011;11284;48.086;-1.652;2023-03-08T12:05:33;16.42;;;3.88;;
22230;SDS011;11284;48.086;-1.652;2023-03-08T12:08:01;14.80;;;3.78;;
22230;SDS011;11284;48.086;-1.652;2023-03-08T12:10:29;12.65;;;2.75;;
22230;SDS011;11284;48.086;-1.652;2023-03-08T12:15:45;15.77;;;3.47;;
22230;SDS011;11284;48.086;-1.652;2023-03-08T12:18:17;14.10;;;3.42;;
22230;SDS011;11284;48.086;-1.652;2023-03-08T12:20:45;13.63;;;3.10;;
22230;SDS011;11284;48.086;-1.652;2023-03-08T12:25:47;13.90;;;2.90;;
22230;SDS011;11284;48.086;-1.652;2023-03-08T12:33:08;14.55;;;3.53;;
22230;SDS011;11284;48.086;-1.652;2023-03-08T12:35:36;12.02;;;3.03;;
22230;SDS011;11284;48.086;-1.652;2023-03-08T12:45:29;15.85;;;3.97;;
22230;SDS011;11284;48.086;-1.652;2023-03-08T12:47:59;18.20;;;3.35;;
22230;SDS011;11284;48.086;-1.652;2023-03-08T12:50:26;12.50;;;3.22;;
22230;SDS011;11284;48.086;-1.652;2023-03-08T12:52:52;15.50;;;3.70;;
22230;SDS011;11284;48.086;-1.652;2023-03-08T12:55:24;15.70;;;3.70;;
22230;SDS011;11284;48.086;-1.652;2023-03-08T12:58:00;16.48;;;3.40;;
22230;SDS011;11284;48.086;-1.652;2023-03-08T13:03:00;19.15;;;4.38;;
22230;SDS011;11284;48.086;-1.652;2023-03-08T13:10:31;19.60;;;4.60;;
22230;SDS011;11284;48.086;-1.652;2023-03-08T13:15:27;20.35;;;4.13;;
22230;SDS011;11284;48.086;-1.652;2023-03-08T13:18:03;20.08;;;3.72;;
22230;SDS011;11284;48.086;-1.652;2023-03-08T13:28:04;16.67;;;3.42;;
22230;SDS011;11284;48.086;-1.652;2023-03-08T13:30:31;16.23;;;3.78;;
22230;SDS011;11284;48.086;-1.652;2023-03-08T13:32:58;15.50;;;3.60;;
22230;SDS011;11284;48.086;-1.652;2023-03-08T13:35:24;17.63;;;3.90;;
22230;SDS011;11284;48.086;-1.652;2023-03-08T13:37:54;18.33;;;3.80;;
22230;SDS011;11284;48.086;-1.652;2023-03-08T13:40:21;16.25;;;3.63;;
22230;SDS011;11284;48.086;-1.652;2023-03-08T13:42:55;12.23;;;2.90;;
22230;SDS011;11284;48.086;-1.652;2023-03-08T13:47:47;11.80;;;2.60;;
22230;SDS011;11284;48.086;-1.652;2023-03-08T13:50:18;12.00;;;2.58;;
22230;SDS011;11284;48.086;-1.652;2023-03-08T13:52:45;9.75;;;2.58;;
22230;SDS011;11284;48.086;-1.652;2023-03-08T13:55:14;13.00;;;2.45;;
22230;SDS011;11284;48.086;-1.652;2023-03-08T13:57:45;12.00;;;2.38;;
22230;SDS011;11284;48.086;-1.652;2023-03-08T14:02:51;13.15;;;2.50;;
22230;SDS011;11284;48.086;-1.652;2023-03-08T14:05:21;10.85;;;2.25;;
22230;SDS011;11284;48.086;-1.652;2023-03-08T14:07:55;12.27;;;2.70;;
22230;SDS011;11284;48.086;-1.652;2023-03-08T14:10:21;9.95;;;2.55;;
22230;SDS011;11284;48.086;-1.652;2023-03-08T14:12:51;12.55;;;3.13;;
22230;SDS011;11284;48.086;-1.652;2023-03-08T14:15:17;14.38;;;3.22;;
22230;SDS011;11284;48.086;-1.652;2023-03-08T14:17:44;10.95;;;2.30;;
22230;SDS011;11284;48.086;-1.652;2023-03-08T14:20:18;13.15;;;2.50;;
22230;SDS011;11284;48.086;-1.652;2023-03-08T14:22:49;14.00;;;2.63;;
22230;SDS011;11284;48.086;-1.652;2023-03-08T14:25:20;13.65;;;3.00;;
22230;SDS011;11284;48.086;-1.652;2023-03-08T14:27:47;12.75;;;3.35;;
22230;SDS011;11284;48.086;-1.652;2023-03-08T14:30:17;12.15;;;2.90;;
22230;SDS011;11284;48.086;-1.652;2023-03-08T14:35:39;13.35;;;3.08;;
22230;SDS011;11284;48.086;-1.652;2023-03-08T14:40:45;13.63;;;3.17;;
22230;SDS011;11284;48.086;-1.652;2023-03-08T14:43:17;15.80;;;3.42;;
22230;SDS011;11284;48.086;-1.652;2023-03-08T14:45:51;15.55;;;2.95;;
22230;SDS011;11284;48.086;-1.652;2023-03-08T14:48:22;18.58;;;3.17;;
22230;SDS011;11284;48.086;-1.652;2023-03-08T14:50:56;13.18;;;3.30;;
22230;SDS011;11284;48.086;-1.652;2023-03-08T14:53:33;16.15;;;3.85;;
22230;SDS011;11284;48.086;-1.652;2023-03-08T14:56:01;19.65;;;4.00;;
22230;SDS011;11284;48.086;-1.652;2023-03-08T14:58:31;17.75;;;3.38;;
22230;SDS011;11284;48.086;-1.652;2023-03-08T15:00:58;18.40;;;3.88;;
22230;SDS011;11284;48.086;-1.652;2023-03-08T15:03:25;19.73;;;4.55;;
22230;SDS011;11284;48.086;-1.652;2023-03-08T15:05:51;15.65;;;4.25;;
22230;SDS011;11284;48.086;-1.652;2023-03-08T15:08:18;21.15;;;4.43;;
22230;SDS011;11284;48.086;-1.652;2023-03-08T15:10:45;23.75;;;4.93;;
22230;SDS011;11284;48.086;-1.652;2023-03-08T15:13:12;21.85;;;4.72;;
22230;SDS011;11284;48.086;-1.652;2023-03-08T15:15:39;22.10;;;5.47;;
22230;SDS011;11284;48.086;-1.652;2023-03-08T15:18:05;27.50;;;5.63;;
22230;SDS011;11284;48.086;-1.652;2023-03-08T15:20:31;25.67;;;5.40;;
22230;SDS011;11284;48.086;-1.652;2023-03-08T15:23:00;22.90;;;5.10;;
22230;SDS011;11284;48.086;-1.652;2023-03-08T15:25:33;26.27;;;5.38;;
22230;SDS011;11284;48.086;-1.652;2023-03-08T15:27:59;23.85;;;5.13;;
22230;SDS011;11284;48.086;-1.652;2023-03-08T15:30:27;20.73;;;4.97;;
22230;SDS011;11284;48.086;-1.652;2023-03-08T15:32:53;20.80;;;5.00;;
22230;SDS011;11284;48.086;-1.652;2023-03-08T15:35:20;24.30;;;4.75;;
22230;SDS011;11284;48.086;-1.652;2023-03-08T15:37:46;23.42;;;5.25;;
22230;SDS011;11284;48.086;-1.652;2023-03-08T15:40:13;21.52;;;4.65;;
22230;SDS011;11284;48.086;-1.652;2023-03-08T15:42:40;24.05;;;5.30;;
22230;SDS011;11284;48.086;-1.652;2023-03-08T15:45:06;25.40;;;5.47;;
22230;SDS011;11284;48.086;-1.652;2023-03-08T15:47:32;24.05;;;4.78;;
22230;SDS011;11284;48.086;-1.652;2023-03-08T15:49:58;22.15;;;5.57;;
22230;SDS011;11284;48.086;-1.652;2023-03-08T15:52:26;25.48;;;5.50;;
22230;SDS011;11284;48.086;-1.652;2023-03-08T15:54:52;27.15;;;5.50;;
22230;SDS011;11284;48.086;-1.652;2023-03-08T15:57:18;28.25;;;5.63;;
22230;SDS011;11284;48.086;-1.652;2023-03-08T15:59:44;29.23;;;8.68;;
22230;SDS011;11284;48.086;-1.652;2023-03-08T16:02:12;25.77;;;5.93;;
22230;SDS011;11284;48.086;-1.652;2023-03-08T16:04:38;24.42;;;5.07;;
22230;SDS011;11284;48.086;-1.652;2023-03-08T16:07:13;22.42;;;5.05;;